createdAt,value
2018-07-23T00:01:29.039Z,98529.00
2018-07-23T00:03:57.563Z,98523.00
2018-07-23T00:06:26.026Z,98530.00
2018-07-23T00:08:54.484Z,98531.00
2018-07-23T00:11:22.908Z,98522.00
2018-07-23T00:13:51.357Z,98521.00
2018-07-23T00:16:19.944Z,98512.00
2018-07-23T00:18:48.387Z,98509.00
2018-07-23T00:21:16.829Z,98523.00
2018-07-23T00:23:45.266Z,98519.00
2018-07-23T00:26:13.703Z,98522.00
2018-07-23T00:28:43.092Z,98524.00
2018-07-23T00:31:12.479Z,98524.00
2018-07-23T00:33:42.334Z,98521.00
2018-07-23T00:36:10.930Z,98524.00
2018-07-23T00:38:39.376Z,98525.00
2018-07-23T00:41:08.001Z,98524.00
2018-07-23T00:43:36.149Z,98535.00
2018-07-23T00:46:04.617Z,98521.00
2018-07-23T00:48:33.086Z,98527.00
2018-07-23T00:51:01.533Z,98519.00
2018-07-23T00:53:29.974Z,98519.00
2018-07-23T00:55:58.430Z,98517.00
2018-07-23T00:58:26.899Z,98522.00
2018-07-23T01:00:55.334Z,98519.00
2018-07-23T01:03:23.742Z,98516.00
2018-07-23T01:05:52.161Z,98519.00
2018-07-23T01:08:20.612Z,98514.00
2018-07-23T01:10:49.017Z,98517.00
2018-07-23T01:13:17.424Z,98520.00
2018-07-23T01:15:45.831Z,98520.00
2018-07-23T01:18:13.968Z,98520.00
2018-07-23T01:20:42.437Z,98521.00
2018-07-23T01:23:10.964Z,98523.00
2018-07-23T01:25:39.388Z,98524.00
2018-07-23T01:28:07.805Z,98529.00
2018-07-23T01:30:36.225Z,98530.00
2018-07-23T01:33:04.390Z,98521.00
2018-07-23T01:35:32.802Z,98534.00
2018-07-23T01:38:01.214Z,98535.00
2018-07-23T01:40:29.622Z,98543.00
2018-07-23T01:42:58.057Z,98537.00
2018-07-23T01:45:26.481Z,98539.00
2018-07-23T01:47:54.892Z,98531.00
2018-07-23T01:50:23.308Z,98524.00
2018-07-23T01:52:51.721Z,98526.00
2018-07-23T01:55:20.328Z,98525.00
2018-07-23T01:57:48.734Z,98530.00
2018-07-23T02:00:17.142Z,98528.00
2018-07-23T02:02:45.575Z,98526.00
2018-07-23T02:05:13.991Z,98519.00
2018-07-23T02:07:43.114Z,98522.00
2018-07-23T02:10:12.799Z,98538.00
2018-07-23T02:12:41.830Z,98542.00
2018-07-23T02:15:10.958Z,98543.00
2018-07-23T02:17:39.105Z,98537.00
2018-07-23T02:20:07.267Z,98550.00
2018-07-23T02:22:35.689Z,98542.00
2018-07-23T02:25:04.114Z,98545.00
2018-07-23T02:27:32.577Z,98544.00
2018-07-23T02:30:01.013Z,98534.00
2018-07-23T02:32:29.431Z,98541.00
2018-07-23T02:34:57.936Z,98541.00
2018-07-23T02:37:26.387Z,98536.00
2018-07-23T02:39:54.811Z,98534.00
2018-07-23T02:42:23.244Z,98543.00
2018-07-23T02:44:51.662Z,98530.00
2018-07-23T02:47:20.088Z,98540.00
2018-07-23T02:49:48.518Z,98544.00
2018-07-23T02:52:16.932Z,98543.00
2018-07-23T02:54:45.365Z,98541.00
2018-07-23T02:57:13.785Z,98549.00
2018-07-23T02:59:42.554Z,98549.00
2018-07-23T03:02:11.900Z,98546.00
2018-07-23T03:04:41.019Z,98543.00
2018-07-23T03:07:09.445Z,98549.00
2018-07-23T03:09:37.903Z,98548.00
2018-07-23T03:12:06.344Z,98548.00
2018-07-23T03:14:34.494Z,98544.00
2018-07-23T03:17:02.910Z,98548.00
2018-07-23T03:19:31.363Z,98544.00
2018-07-23T03:21:59.832Z,98544.00
2018-07-23T03:24:28.218Z,98550.00
2018-07-23T03:26:56.888Z,98557.00
2018-07-23T03:29:25.309Z,98560.00
2018-07-23T03:31:53.733Z,98554.00
2018-07-23T03:34:22.150Z,98555.00
2018-07-23T03:36:50.572Z,98564.00
2018-07-23T03:39:19.037Z,98556.00
2018-07-23T03:41:47.453Z,98565.00
2018-07-23T03:44:15.900Z,98570.00
2018-07-23T03:46:44.333Z,98567.00
2018-07-23T03:49:13.705Z,98567.00
2018-07-23T03:51:43.244Z,98571.00
2018-07-23T03:54:12.527Z,98578.00
2018-07-23T03:56:42.814Z,98572.00
2018-07-23T03:59:11.751Z,98569.00
2018-07-23T04:01:41.236Z,98570.00
2018-07-23T04:04:09.688Z,98575.00
2018-07-23T04:06:38.115Z,98578.00
2018-07-23T04:09:08.549Z,98573.00
2018-07-23T04:11:37.014Z,98573.00
2018-07-23T04:14:05.522Z,98567.00
2018-07-23T04:16:33.978Z,98575.00
2018-07-23T04:19:02.417Z,98567.00
2018-07-23T04:21:30.834Z,98574.00
2018-07-23T04:23:59.507Z,98579.00
2018-07-23T04:26:27.716Z,98587.00
2018-07-23T04:28:56.199Z,98588.00
2018-07-23T04:31:24.698Z,98594.00
2018-07-23T04:33:53.118Z,98591.00
2018-07-23T04:36:21.560Z,98589.00
2018-07-23T04:38:49.994Z,98590.00
2018-07-23T04:41:18.423Z,98595.00
2018-07-23T04:43:46.852Z,98594.00
2018-07-23T04:46:15.360Z,98597.00
2018-07-23T04:48:43.797Z,98595.00
2018-07-23T04:51:12.435Z,98599.00
2018-07-23T04:53:40.981Z,98604.00
2018-07-23T04:56:09.506Z,98602.00
2018-07-23T04:58:37.927Z,98603.00
2018-07-23T05:01:06.375Z,98606.00
2018-07-23T05:03:34.881Z,98602.00
2018-07-23T05:06:03.309Z,98614.00
2018-07-23T05:08:31.796Z,98615.00
2018-07-23T05:10:59.951Z,98617.00
2018-07-23T05:13:28.424Z,98621.00
2018-07-23T05:15:56.888Z,98614.00
2018-07-23T05:18:25.311Z,98612.00
2018-07-23T05:20:53.736Z,98610.00
2018-07-23T05:23:22.231Z,98613.00
2018-07-23T05:25:50.649Z,98616.00
2018-07-23T05:28:19.209Z,98627.00
2018-07-23T05:30:47.651Z,98619.00
2018-07-23T05:33:16.707Z,98624.00
2018-07-23T05:35:45.130Z,98622.00
2018-07-23T05:38:13.811Z,98623.00
2018-07-23T05:40:43.336Z,98624.00
2018-07-23T05:43:11.872Z,98628.00
2018-07-23T05:45:41.674Z,98628.00
2018-07-23T05:48:09.808Z,98624.00
2018-07-23T05:50:38.227Z,98628.00
2018-07-23T05:53:06.808Z,98638.00
2018-07-23T05:55:35.253Z,98637.00
2018-07-23T05:58:03.668Z,98636.00
2018-07-23T06:00:32.084Z,98638.00
2018-07-23T06:03:00.511Z,98632.00
2018-07-23T06:05:28.930Z,98627.00
2018-07-23T06:07:57.350Z,98638.00
2018-07-23T06:10:25.782Z,98620.00
2018-07-23T06:12:54.302Z,98636.00
2018-07-23T06:15:22.731Z,98639.00
2018-07-23T06:17:51.141Z,98637.00
2018-07-23T06:20:19.571Z,98647.00
2018-07-23T06:22:48.023Z,98640.00
2018-07-23T06:25:16.469Z,98653.00
2018-07-23T06:27:44.881Z,98645.00
2018-07-23T06:30:13.482Z,98649.00
2018-07-23T06:32:43.383Z,98646.00
2018-07-23T06:35:13.462Z,98644.00
2018-07-23T06:37:43.089Z,98645.00
2018-07-23T06:40:12.640Z,98646.00
2018-07-23T06:42:42.187Z,98645.00
2018-07-23T06:45:11.811Z,98649.00
2018-07-23T06:47:40.918Z,98641.00
2018-07-23T06:50:09.379Z,98648.00
2018-07-23T06:52:37.798Z,98647.00
2018-07-23T06:55:06.245Z,98654.00
2018-07-23T06:57:34.668Z,98647.00
2018-07-23T07:00:03.114Z,98649.00
2018-07-23T07:02:31.266Z,98649.00
2018-07-23T07:04:59.710Z,98654.00
2018-07-23T07:07:28.126Z,98655.00
2018-07-23T07:09:56.557Z,98658.00
2018-07-23T07:12:24.976Z,98664.00
2018-07-23T07:14:53.410Z,98665.00
2018-07-23T07:17:21.869Z,98660.00
2018-07-23T07:19:50.049Z,98663.00
2018-07-23T07:22:18.453Z,98661.00
2018-07-23T07:24:46.869Z,98659.00
2018-07-23T07:27:15.295Z,98656.00
2018-07-23T07:29:43.724Z,98660.00
2018-07-23T07:32:13.230Z,98665.00
2018-07-23T07:34:41.745Z,98665.00
2018-07-23T07:37:10.975Z,98669.00
2018-07-23T07:39:39.391Z,98656.00
2018-07-23T07:42:07.825Z,98666.00
2018-07-23T07:44:36.248Z,98664.00
2018-07-23T07:47:04.663Z,98663.00
2018-07-23T07:49:33.100Z,98664.00
2018-07-23T07:52:01.542Z,98663.00
2018-07-23T07:54:30.046Z,98665.00
2018-07-23T07:56:58.479Z,98662.00
2018-07-23T07:59:26.908Z,98664.00
2018-07-23T08:01:55.354Z,98660.00
2018-07-23T08:04:23.788Z,98664.00
2018-07-23T08:06:52.204Z,98657.00
2018-07-23T08:09:20.641Z,98664.00
2018-07-23T08:11:49.066Z,98656.00
2018-07-23T08:14:17.503Z,98664.00
2018-07-23T08:16:45.918Z,98666.00
2018-07-23T08:19:14.552Z,98653.00
2018-07-23T08:21:43.009Z,98656.00
2018-07-23T08:24:12.668Z,98651.00
2018-07-23T08:26:41.708Z,98656.00
2018-07-23T08:29:10.951Z,98653.00
2018-07-23T08:31:39.404Z,98656.00
2018-07-23T08:34:07.792Z,98648.00
2018-07-23T08:36:36.209Z,98653.00
2018-07-23T08:39:07.627Z,98659.00
2018-07-23T08:41:36.073Z,98664.00
2018-07-23T08:44:04.518Z,98660.00
2018-07-23T08:46:32.967Z,98666.00
2018-07-23T08:49:01.878Z,98667.00
2018-07-23T08:51:30.305Z,98660.00
2018-07-23T08:53:58.796Z,98662.00
2018-07-23T08:56:27.388Z,98667.00
2018-07-23T08:58:55.806Z,98665.00
2018-07-23T09:01:24.227Z,98668.00
2018-07-23T09:03:52.636Z,98666.00
2018-07-23T09:06:21.056Z,98667.00
2018-07-23T09:08:49.614Z,98663.00
2018-07-23T09:11:18.061Z,98665.00
2018-07-23T09:13:46.482Z,98671.00
2018-07-23T09:16:15.006Z,98671.00
2018-07-23T09:18:43.422Z,98671.00
2018-07-23T09:21:13.036Z,98664.00
2018-07-23T09:23:42.642Z,98665.00
2018-07-23T09:26:11.779Z,98662.00
2018-07-23T09:28:40.977Z,98662.00
2018-07-23T09:31:09.200Z,98664.00
2018-07-23T09:33:37.574Z,98657.00
2018-07-23T09:36:06.135Z,98656.00
2018-07-23T09:38:34.552Z,98659.00
2018-07-23T09:41:02.977Z,98660.00
2018-07-23T09:43:31.396Z,98655.00
2018-07-23T09:45:59.830Z,98656.00
2018-07-23T09:48:27.975Z,98651.00
2018-07-23T09:50:56.411Z,98651.00
2018-07-23T09:53:24.831Z,98654.00
2018-07-23T09:55:53.258Z,98650.00
2018-07-23T09:58:21.682Z,98657.00
2018-07-23T10:00:57.801Z,98655.00
2018-07-23T10:03:26.255Z,98653.00
2018-07-23T10:05:54.656Z,98646.00
2018-07-23T10:08:23.065Z,98650.00
2018-07-23T10:10:51.523Z,98651.00
2018-07-23T10:13:19.941Z,98647.00
2018-07-23T10:15:48.354Z,98647.00
2018-07-23T10:18:16.804Z,98640.00
2018-07-23T10:20:45.217Z,98641.00
2018-07-23T10:23:13.737Z,98639.00
2018-07-23T10:25:43.206Z,98643.00
2018-07-23T10:28:12.266Z,98651.00
2018-07-23T10:30:41.825Z,98643.00
2018-07-23T10:33:11.043Z,98642.00
2018-07-23T10:35:39.464Z,98634.00
2018-07-23T10:38:07.907Z,98639.00
2018-07-23T10:40:36.338Z,98637.00
2018-07-23T10:43:04.753Z,98633.00
2018-07-23T10:45:33.154Z,98630.00
2018-07-23T10:48:01.583Z,98632.00
2018-07-23T10:50:29.989Z,98628.00
2018-07-23T10:52:58.424Z,98620.00
2018-07-23T10:55:26.841Z,98622.00
2018-07-23T10:57:55.299Z,98630.00
2018-07-23T11:00:23.747Z,98626.00
2018-07-23T11:02:52.165Z,98620.00
2018-07-23T11:05:20.579Z,98626.00
2018-07-23T11:07:48.987Z,98629.00
2018-07-23T11:10:17.421Z,98622.00
2018-07-23T11:12:45.830Z,98621.00
2018-07-23T11:15:14.427Z,98629.00
2018-07-23T11:17:43.987Z,98622.00
2018-07-23T11:20:13.786Z,98625.00
2018-07-23T11:22:43.296Z,98625.00
2018-07-23T11:25:38.502Z,98619.00
2018-07-23T11:27:41.729Z,98615.00
2018-07-23T11:30:10.949Z,98608.00
2018-07-23T11:32:39.489Z,98606.00
2018-07-23T11:35:07.968Z,98608.00
2018-07-23T11:37:36.450Z,98619.00
2018-07-23T11:40:05.240Z,98617.00
2018-07-23T11:42:33.654Z,98615.00
2018-07-23T11:45:02.085Z,98610.00
2018-07-23T11:47:30.504Z,98611.00
2018-07-23T11:49:58.937Z,98610.00
2018-07-23T11:52:27.360Z,98607.00
2018-07-23T11:54:55.782Z,98606.00
2018-07-23T11:57:24.201Z,98600.00
2018-07-23T11:59:52.617Z,98606.00
2018-07-23T12:02:21.029Z,98603.00
2018-07-23T12:04:49.534Z,98608.00
2018-07-23T12:07:17.958Z,98612.00
2018-07-23T12:09:46.369Z,98614.00
2018-07-23T12:12:14.829Z,98613.00
2018-07-23T12:14:44.673Z,98612.00
2018-07-23T12:17:14.590Z,98615.00
2018-07-23T12:19:43.838Z,98605.00
2018-07-23T12:22:13.326Z,98604.00
2018-07-23T12:24:41.900Z,98597.00
2018-07-23T12:27:10.447Z,98604.00
2018-07-23T12:29:38.872Z,98602.00
2018-07-23T12:32:07.306Z,98592.00
2018-07-23T12:34:35.753Z,98596.00
2018-07-23T12:37:04.182Z,98589.00
2018-07-23T12:39:32.631Z,98597.00
2018-07-23T12:42:01.038Z,98591.00
2018-07-23T12:44:29.450Z,98594.00
2018-07-23T12:46:57.910Z,98590.00
2018-07-23T12:49:26.330Z,98584.00
2018-07-23T12:51:54.742Z,98578.00
2018-07-23T12:54:23.157Z,98572.00
2018-07-23T12:56:51.589Z,98573.00
2018-07-23T12:59:20.011Z,98575.00
2018-07-23T13:01:48.438Z,98573.00
2018-07-23T13:04:17.035Z,98585.00
2018-07-23T13:06:45.459Z,98589.00
2018-07-23T13:09:13.932Z,98589.00
2018-07-23T13:11:42.447Z,98590.00
2018-07-23T13:14:10.865Z,98593.00
2018-07-23T13:16:39.283Z,98593.00
2018-07-23T13:19:07.755Z,98598.00
2018-07-23T13:21:36.200Z,98588.00
2018-07-23T13:24:04.689Z,98591.00
2018-07-23T13:26:33.119Z,98593.00
2018-07-23T13:29:01.555Z,98597.00
2018-07-23T13:31:30.043Z,98584.00
2018-07-23T13:33:58.726Z,98585.00
2018-07-23T13:36:27.145Z,98587.00
2018-07-23T13:38:55.731Z,98579.00
2018-07-23T13:41:24.257Z,98573.00
2018-07-23T13:43:52.722Z,98566.00
2018-07-23T13:46:21.191Z,98572.00
2018-07-23T13:48:49.786Z,98572.00
2018-07-23T13:51:18.598Z,98571.00
2018-07-23T13:53:47.150Z,98572.00
2018-07-23T13:56:17.136Z,98552.00
2018-07-23T13:58:46.839Z,98553.00
2018-07-23T14:01:16.562Z,98553.00
2018-07-23T14:03:45.883Z,98561.00
2018-07-23T14:06:15.205Z,98551.00
2018-07-23T14:08:44.901Z,98548.00
2018-07-23T14:11:14.969Z,98550.00
2018-07-23T14:13:44.427Z,98551.00
2018-07-23T14:16:14.046Z,98549.00
2018-07-23T14:18:43.606Z,98543.00
2018-07-23T14:21:12.753Z,98551.00
2018-07-23T14:23:41.842Z,98550.00
2018-07-23T14:26:11.958Z,98556.00
2018-07-23T14:28:41.304Z,98556.00
2018-07-23T14:31:10.963Z,98549.00
2018-07-23T14:33:40.088Z,98550.00
2018-07-23T14:36:09.596Z,98550.00
2018-07-23T14:38:38.690Z,98550.00
2018-07-23T14:41:07.760Z,98548.00
2018-07-23T14:43:37.951Z,98548.00
2018-07-23T14:46:06.673Z,98542.00
2018-07-23T14:48:36.738Z,98540.00
2018-07-23T14:51:06.394Z,98540.00
2018-07-23T14:53:35.434Z,98537.00
2018-07-23T14:56:04.695Z,98537.00
2018-07-23T14:58:33.656Z,98540.00
2018-07-23T15:01:02.908Z,98534.00
2018-07-23T15:03:32.109Z,98534.00
2018-07-23T15:06:01.284Z,98540.00
2018-07-23T15:08:30.746Z,98525.00
2018-07-23T15:10:59.483Z,98536.00
2018-07-23T15:13:28.824Z,98524.00
2018-07-23T15:15:58.374Z,98524.00
2018-07-23T15:18:26.825Z,98522.00
2018-07-23T15:20:55.320Z,98527.00
2018-07-23T15:23:23.559Z,98521.00
2018-07-23T15:25:52.023Z,98521.00
2018-07-23T15:28:20.587Z,98525.00
2018-07-23T15:30:49.022Z,98519.00
2018-07-23T15:33:17.832Z,98517.00
2018-07-23T15:35:46.335Z,98520.00
2018-07-23T15:38:14.755Z,98523.00
2018-07-23T15:40:44.263Z,98521.00
2018-07-23T15:43:13.399Z,98513.00
2018-07-23T15:45:42.872Z,98516.00
2018-07-23T15:48:11.785Z,98523.00
2018-07-23T15:50:40.780Z,98518.00
2018-07-23T15:53:09.202Z,98515.00
2018-07-23T15:55:37.639Z,98509.00
2018-07-23T15:58:06.160Z,98518.00
2018-07-23T16:00:34.593Z,98514.00
2018-07-23T16:03:03.029Z,98517.00
2018-07-23T16:05:31.586Z,98518.00
2018-07-23T16:08:00.042Z,98513.00
2018-07-23T16:10:28.476Z,98512.00
2018-07-23T16:12:56.878Z,98497.00
2018-07-23T16:15:25.297Z,98511.00
2018-07-23T16:17:53.746Z,98510.00
2018-07-23T16:20:22.180Z,98513.00
2018-07-23T16:22:50.597Z,98510.00
2018-07-23T16:25:19.802Z,98502.00
2018-07-23T16:27:48.235Z,98505.00
2018-07-23T16:30:16.850Z,98511.00
2018-07-23T16:32:45.656Z,98507.00
2018-07-23T16:35:14.758Z,98501.00
2018-07-23T16:37:43.488Z,98515.00
2018-07-23T16:40:13.170Z,98511.00
2018-07-23T16:42:42.165Z,98511.00
2018-07-23T16:45:11.587Z,98516.00
2018-07-23T16:47:40.014Z,98515.00
2018-07-23T16:50:08.493Z,98505.00
2018-07-23T16:52:37.006Z,98506.00
2018-07-23T16:55:05.438Z,98513.00
2018-07-23T16:57:33.864Z,98512.00
2018-07-23T17:00:02.382Z,98510.00
2018-07-23T17:02:30.721Z,98509.00
2018-07-23T17:04:59.282Z,98503.00
2018-07-23T17:07:27.691Z,98511.00
2018-07-23T17:09:56.881Z,98510.00
2018-07-23T17:12:25.381Z,98509.00
2018-07-23T17:14:54.019Z,98515.00
2018-07-23T17:17:22.578Z,98514.00
2018-07-23T17:19:51.002Z,98513.00
2018-07-23T17:22:19.654Z,98515.00
2018-07-23T17:24:48.206Z,98516.00
2018-07-23T17:27:16.644Z,98516.00
2018-07-23T17:29:45.086Z,98518.00
2018-07-23T17:32:13.523Z,98524.00
2018-07-23T17:34:43.465Z,98525.00
2018-07-23T17:37:12.955Z,98515.00
2018-07-23T17:39:43.320Z,98530.00
2018-07-23T17:42:12.831Z,98526.00
2018-07-23T17:44:41.944Z,98528.00
2018-07-23T17:47:11.306Z,98528.00
2018-07-23T17:49:39.762Z,98531.00
2018-07-23T17:52:08.347Z,98536.00
2018-07-23T17:54:36.765Z,98528.00
2018-07-23T17:57:05.223Z,98542.00
2018-07-23T17:59:33.646Z,98534.00
2018-07-23T18:02:02.050Z,98535.00
2018-07-23T18:04:30.778Z,98539.00
2018-07-23T18:06:59.204Z,98534.00
2018-07-23T18:09:27.814Z,98540.00
2018-07-23T18:11:56.340Z,98538.00
2018-07-23T18:14:24.776Z,98544.00
2018-07-23T18:16:53.387Z,98558.00
2018-07-23T18:19:21.801Z,98547.00
2018-07-23T18:21:50.325Z,98550.00
2018-07-23T18:24:18.736Z,98552.00
2018-07-23T18:26:47.222Z,98553.00
2018-07-23T18:29:15.637Z,98553.00
2018-07-23T18:31:44.049Z,98554.00
2018-07-23T18:34:13.116Z,98551.00
2018-07-23T18:36:42.680Z,98560.00
2018-07-23T18:39:12.338Z,98565.00
2018-07-23T18:41:41.830Z,98558.00
2018-07-23T18:44:10.861Z,98567.00
2018-07-23T18:46:39.937Z,98564.00
2018-07-23T18:49:22.743Z,98570.00
2018-07-23T18:51:52.578Z,98565.00
2018-07-23T18:54:22.353Z,98566.00
2018-07-23T18:56:53.303Z,98570.00
2018-07-23T18:59:21.946Z,98572.00
2018-07-23T19:01:51.322Z,98572.00
2018-07-23T19:04:19.925Z,98569.00
2018-07-23T19:06:48.913Z,98585.00
2018-07-23T19:09:18.486Z,98592.00
2018-07-23T19:11:48.232Z,98587.00
2018-07-23T19:14:17.496Z,98587.00
2018-07-23T19:16:46.384Z,98599.00
2018-07-23T19:19:15.114Z,98592.00
2018-07-23T19:21:43.652Z,98602.00
2018-07-23T19:24:13.975Z,98601.00
2018-07-23T19:26:42.927Z,98604.00
2018-07-23T19:29:11.920Z,98611.00
2018-07-23T19:31:41.929Z,98614.00
2018-07-23T19:34:11.598Z,98611.00
2018-07-23T19:36:40.898Z,98607.00
2018-07-23T19:39:12.727Z,98617.00
2018-07-23T19:41:41.952Z,98615.00
2018-07-23T19:44:11.793Z,98622.00
2018-07-23T19:46:40.918Z,98626.00
2018-07-23T19:49:09.272Z,98632.00
2018-07-23T19:51:37.947Z,98640.00
2018-07-23T19:54:07.202Z,98633.00
2018-07-23T19:56:35.693Z,98632.00
2018-07-23T19:59:04.349Z,98629.00
2018-07-23T20:01:32.790Z,98632.00
2018-07-23T20:05:30.562Z,98630.00
2018-07-23T20:07:59.049Z,98632.00
2018-07-23T20:10:27.614Z,98629.00
2018-07-23T20:12:56.116Z,98631.00
2018-07-23T20:15:24.547Z,98631.00
2018-07-23T20:17:52.953Z,98626.00
2018-07-23T20:20:21.772Z,98629.00
2018-07-23T20:22:50.205Z,98626.00
2018-07-23T20:25:18.649Z,98622.00
2018-07-23T20:27:47.121Z,98621.00
2018-07-23T20:30:15.589Z,98623.00
2018-07-23T20:32:44.006Z,98621.00
2018-07-23T20:35:13.489Z,98623.00
2018-07-23T20:37:42.964Z,98628.00
2018-07-23T20:40:12.721Z,98620.00
2018-07-23T20:42:41.919Z,98627.00
2018-07-23T20:47:47.797Z,98626.00
2018-07-23T20:50:16.373Z,98619.00
2018-07-23T20:52:45.234Z,98617.00
2018-07-23T20:55:13.841Z,98627.00
2018-07-23T20:57:42.854Z,98627.00
2018-07-23T21:00:11.861Z,98626.00
2018-07-23T21:02:41.166Z,98623.00
2018-07-23T21:05:09.592Z,98625.00
2018-07-23T21:07:38.005Z,98627.00
2018-07-23T21:10:06.681Z,98627.00
2018-07-23T21:12:35.113Z,98620.00
2018-07-23T21:15:03.556Z,98626.00
2018-07-23T21:17:31.962Z,98621.00
2018-07-23T21:20:01.197Z,98628.00
2018-07-23T21:22:29.653Z,98629.00
2018-07-23T21:24:58.071Z,98628.00
2018-07-23T21:27:26.525Z,98629.00
2018-07-23T21:29:55.017Z,98629.00
2018-07-23T21:32:23.521Z,98628.00
2018-07-23T21:34:51.948Z,98625.00
2018-07-23T21:37:20.633Z,98629.00
2018-07-23T21:39:49.064Z,98633.00
2018-07-23T21:42:17.495Z,98636.00
2018-07-23T21:44:45.975Z,98635.00
2018-07-23T21:47:14.432Z,98636.00
2018-07-23T21:49:43.938Z,98625.00
2018-07-23T21:52:12.522Z,98625.00
2018-07-23T21:54:41.243Z,98620.00
2018-07-23T21:57:09.688Z,98622.00
2018-07-23T21:59:38.145Z,98627.00
2018-07-23T22:02:06.728Z,98626.00
2018-07-23T22:04:35.164Z,98626.00
2018-07-23T22:07:03.589Z,98624.00
2018-07-23T22:09:32.007Z,98624.00
2018-07-23T22:12:00.431Z,98621.00
2018-07-23T22:14:28.847Z,98624.00
2018-07-23T22:16:57.264Z,98630.00
2018-07-23T22:19:25.691Z,98621.00
2018-07-23T22:21:54.105Z,98618.00
2018-07-23T22:24:23.017Z,98627.00
2018-07-23T22:26:51.707Z,98624.00
2018-07-23T22:29:20.129Z,98623.00
2018-07-23T22:31:48.633Z,98626.00
2018-07-23T22:34:17.483Z,98625.00
2018-07-23T22:36:46.358Z,98623.00
2018-07-23T22:39:14.850Z,98622.00
2018-07-23T22:41:43.853Z,98620.00
2018-07-23T22:44:12.586Z,98632.00
2018-07-23T22:46:42.112Z,98614.00
2018-07-23T22:49:10.899Z,98624.00
2018-07-23T22:51:39.328Z,98617.00
2018-07-23T22:54:07.747Z,98616.00
2018-07-23T22:56:36.420Z,98621.00
2018-07-23T22:59:04.838Z,98621.00
2018-07-23T23:01:33.265Z,98620.00
2018-07-23T23:04:01.670Z,98623.00
2018-07-23T23:06:30.095Z,98620.00
2018-07-23T23:08:58.550Z,98621.00
2018-07-23T23:11:26.965Z,98615.00
2018-07-23T23:13:55.381Z,98611.00
2018-07-23T23:16:24.254Z,98618.00
2018-07-23T23:18:52.677Z,98616.00
2018-07-23T23:21:21.116Z,98610.00
2018-07-23T23:23:49.550Z,98606.00
2018-07-23T23:26:18.055Z,98623.00
2018-07-23T23:28:46.753Z,98618.00
2018-07-23T23:31:15.506Z,98607.00
2018-07-23T23:33:44.059Z,98610.00
2018-07-23T23:36:13.174Z,98599.00
2018-07-23T23:38:43.531Z,98606.00
2018-07-23T23:41:12.868Z,98611.00
2018-07-23T23:43:41.837Z,98612.00
2018-07-23T23:46:10.422Z,98613.00
2018-07-23T23:48:39.154Z,98616.00
2018-07-23T23:51:07.576Z,98613.00
2018-07-23T23:53:36.027Z,98616.00
2018-07-23T23:56:04.449Z,98620.00
2018-07-23T23:58:32.873Z,98616.00
